Main page
METAR-TAF:

METAR-TAF

Airports :

Zahedan Airport

Zahedan, Iran

latitude: 29-28N, longitude: 060-53E, elevation: 1370 m

Current weather observation

The report was made 39 minutes ago, at 16:30 UTC
Calm wind
Temperature 16°C
Humidity 29%
Pressure 1022 hPa
Visibility 10 km or more
Few clouds at a height of 4000 ft
Scattered clouds at a height of 10000 ft

METAR: OIZH 181630Z 00000KT 9999 FEW040 SCT100 16/M02 Q1022 A3019 NOSIG

Time: 20:39 (17:09 UTC)

Forecast

The report was made 5 hours and 39 minutes ago, at 11:30 UTC
Forecast valid from 18 at 12 UTC to 19 at 18 UTC
Wind 12 kt from the North
Visibility: 7000 m
Scattered clouds at a height of 3500 ft, Towering cumulus.
Scattered clouds at a height of 4500 ft
Becoming
from 18 at 15 UTC to 18 at 16 UTC
Wind 6 kt from the North

TAF: OIZH 181130Z 1812/1918 01006MPS 7000 SCT035TCU SCT045 BECMG 1815/1816 01003MPS

Weather observations and forecasts of more than 4000 airports (METAR and TAF reports).

The available stations are represented by yellow and red dots on the map.

Hover mouse over dot to see the name of the station.

Then click to see weather observations and forecasts.

To change the map : click on the green buttons with a black cross to zoom in, on the green button with a dash to zoom out, or on the green arrows for adjacent maps.


METAR-TAF: